Kagoshima Kohaku No7 — JD4100 — position and weather

sailwx.info

Track history (hours):
 
Tides and Currents Weather Stations Pressure Air Temp Water Temp Dewpoint Dewpoint Depression Visibility Wind Speed Wind Dir Waves Ship Positions

Kagoshima Kohaku No7

Last reported at 2017-Sep-18 08:25 UTC. Time now 2017-Sep-21 12:29 UTC.
Position N 34°04' E 135°02'.

Length 75 m; draft 4.1 m.

Type: Cargo ship. MMSI: 431008653.

Date/timePositionNaut miles runAvg speedWind from/ knotsBaromVisibWave heightAir tempDewpointWater temp
2017-Sep-18 08:25N 34°04' E 135°02'4 8.8
2017-Sep-18 08:00N 34°08' E 135°03'5 9.0
2017-Sep-18 07:30N 34°12' E 135°03'13 0.3
2017-Sep-16 05:21N 34°24' E 135°09'0 0.0
2017-Sep-16 04:58N 34°24' E 135°09'2 4.9
2017-Sep-16 04:30N 34°26' E 135°10'612.4
2017-Sep-16 04:00N 34°32' E 135°13'612.1
2017-Sep-16 03:30N 34°38' E 135°16'4 8.8
2017-Sep-16 03:00N 34°42' E 135°15'0 0.3
2017-Sep-16 02:30N 34°42' E 135°15'0 0.0
2017-Sep-16 02:00N 34°42' E 135°15'0 0.0
2017-Sep-16 01:30N 34°42' E 135°15'0 0.0
2017-Sep-16 01:00N 34°42' E 135°15'0 0.0
2017-Sep-14 23:25N 34°42' E 135°15'0 0.2
2017-Sep-14 23:00N 34°42' E 135°15'1 1.2
2017-Sep-14 22:30N 34°42' E 135°15'0 0.0
2017-Sep-14 22:00N 34°42' E 135°15'0 0.0
2017-Sep-14 21:30N 34°42' E 135°15'0 0.0
2017-Sep-14 21:00N 34°42' E 135°15'0 0.0
2017-Sep-14 20:30N 34°42' E 135°15'0 0.1
2017-Sep-14 20:00N 34°42' E 135°15'0 0.0
2017-Sep-14 19:30N 34°42' E 135°15'0 0.0
2017-Sep-14 19:00N 34°42' E 135°15'0 0.0
2017-Sep-14 18:30N 34°42' E 135°15'0 0.0
2017-Sep-14 18:00N 34°42' E 135°15'0 0.1
2017-Sep-14 17:30N 34°42' E 135°15'0 0.1
2017-Sep-14 17:00N 34°42' E 135°15'0 0.1
2017-Sep-14 16:30N 34°42' E 135°15'0 0.1
2017-Sep-14 16:00N 34°42' E 135°15'0 0.0
2017-Sep-14 15:30N 34°42' E 135°15'0 0.0
2017-Sep-14 15:00N 34°42' E 135°15'0 0.0
2017-Sep-14 14:30N 34°42' E 135°15'2 4.6
2017-Sep-14 14:00N 34°39' E 135°15'510.4
2017-Sep-14 13:30N 34°34' E 135°14'611.0
2017-Sep-14 13:00N 34°30' E 135°11'610.8
2017-Sep-14 12:30N 34°25' E 135°08'710.7
2017-Sep-14 11:52N 34°19' E 135°04'3 9.4
2017-Sep-14 11:30N 34°15' E 135°03'611.2
2017-Sep-14 11:01N 34°10' E 135°03'611.6
2017-Sep-14 10:30N 34°04' E 135°03'209 9.3
2017-Sep-13 12:00N 34°50' E 139°10'1611.2
2017-Sep-13 10:36N 34°59' E 139°25'311.5
2017-Sep-13 10:20N 35°01' E 139°28'411.6
2017-Sep-13 10:00N 35°03' E 139°32'612.3
2017-Sep-13 09:30N 35°07' E 139°39'612.4
2017-Sep-13 09:00N 35°11' E 139°44'510.9
2017-Sep-13 08:31N 35°16' E 139°46'611.6
2017-Sep-13 08:00N 35°21' E 139°42'611.5
2017-Sep-13 07:31N 35°26' E 139°45'612.3
2017-Sep-13 07:01N 35°30' E 139°51'612.2
2017-Sep-13 06:29N 35°35' E 139°56'5 9.6
2017-Sep-13 06:00N 35°40' E 139°57'1 0.0
2017-Sep-11 22:07N 35°41' E 139°58'1 5.2
2017-Sep-11 22:00N 35°40' E 139°57'3 0.2
2017-Sep-11 09:38N 35°38' E 139°58'0 0.0
2017-Sep-11 09:30N 35°38' E 139°58'0 0.0
2017-Sep-11 08:53N 35°38' E 139°58'0 0.0
2017-Sep-11 08:17N 35°38' E 139°58'0 0.0
2017-Sep-11 07:59N 35°38' E 139°58'0 0.0
2017-Sep-11 07:17N 35°38' E 139°58'0 0.0
2017-Sep-11 07:00N 35°38' E 139°58'0 0.0
2017-Sep-11 06:30N 35°38' E 139°58'0 0.0
2017-Sep-11 05:55N 35°38' E 139°58'0 0.0
2017-Sep-11 05:30N 35°38' E 139°58'5 4.3
2017-Sep-11 04:24N 35°34' E 139°55'512.2
2017-Sep-11 03:59N 35°31' E 139°50'612.2
2017-Sep-11 03:30N 35°27' E 139°45'3 6.6
2017-Sep-11 03:00N 35°27' E 139°41'0 0.0
2017-Sep-11 02:30N 35°27' E 139°41'0 0.0
2017-Sep-11 02:00N 35°27' E 139°41'0 0.0
2017-Sep-11 01:30N 35°27' E 139°41'0 0.0
2017-Sep-11 01:00N 35°27' E 139°41'0 0.0
2017-Sep-11 00:30N 35°27' E 139°41'0 0.0
2017-Sep-11 00:00N 35°27' E 139°41'0 0.0
2017-Sep-10 23:30N 35°27' E 139°41'0 0.0
2017-Sep-10 23:00N 35°27' E 139°41'1 2.2
2017-Sep-10 22:30N 35°27' E 139°42'0 0.6
2017-Sep-10 22:00N 35°27' E 139°42'0 0.0
2017-Sep-10 21:30N 35°27' E 139°42'0 0.0
2017-Sep-10 21:00N 35°27' E 139°42'0 0.0
2017-Sep-10 20:30N 35°27' E 139°42'0 0.0
2017-Sep-10 20:00N 35°27' E 139°42'0 0.0
2017-Sep-10 19:30N 35°27' E 139°42'0 0.0
2017-Sep-10 19:00N 35°27' E 139°42'0 0.0
2017-Sep-10 18:30N 35°27' E 139°42'0 0.1
2017-Sep-10 18:00N 35°27' E 139°42'0 0.0
2017-Sep-10 17:30N 35°27' E 139°42'0 0.0
2017-Sep-10 17:00N 35°27' E 139°42'0 0.1
2017-Sep-10 16:30N 35°27' E 139°42'0 0.1
2017-Sep-10 16:00N 35°27' E 139°42'0 0.1
2017-Sep-10 15:30N 35°27' E 139°42'0 0.0
2017-Sep-10 15:00N 35°27' E 139°42'0 0.1
2017-Sep-10 14:00N 35°27' E 139°42'4 8.7
2017-Sep-10 13:30N 35°22' E 139°43'510.8
2017-Sep-10 13:00N 35°17' E 139°45'510.8
2017-Sep-10 12:30N 35°12' E 139°47'611.8
2017-Sep-10 12:00N 35°07' E 139°43'612.8
2017-Sep-10 11:30N 35°03' E 139°37'713.3
2017-Sep-10 11:00N 34°58' E 139°32'22910.1
2017-Sep-09 12:23N 34°01' E 135°02'411.0
2017-Sep-09 12:00N 34°06' E 135°02'611.4
2017-Sep-09 11:28N 34°12' E 135°03'510.9
2017-Sep-09 10:59N 34°17' E 135°04'510.6
2017-Sep-09 10:29N 34°22' E 135°06'1012.1
2017-Sep-09 09:41N 34°30' E 135°12'212.3
2017-Sep-09 09:30N 34°32' E 135°13'611.6
2017-Sep-09 09:00N 34°37' E 135°16'5 9.2
2017-Sep-09 08:30N 34°42' E 135°15'0 0.0
2017-Sep-08 15:09N 34°42' E 135°15'0 0.0
2017-Sep-08 15:00N 34°42' E 135°15'0 0.0
2017-Sep-08 14:30N 34°42' E 135°15'0 0.0
2017-Sep-08 14:00N 34°42' E 135°15'0 0.0
2017-Sep-08 13:30N 34°42' E 135°15'0 0.0
2017-Sep-08 13:00N 34°42' E 135°15'0 0.0
2017-Sep-08 12:30N 34°42' E 135°15'0 0.0
2017-Sep-08 12:00N 34°42' E 135°15'0 0.0
2017-Sep-08 11:30N 34°42' E 135°15'0 0.0
2017-Sep-08 11:00N 34°42' E 135°15'0 0.0
2017-Sep-08 10:30N 34°42' E 135°15'0 0.1
2017-Sep-08 10:00N 34°42' E 135°15'1 1.1
2017-Sep-08 09:30N 34°42' E 135°15'0 0.0
2017-Sep-08 09:00N 34°42' E 135°15'0 0.0
2017-Sep-08 08:30N 34°42' E 135°15'  
Track history (hours):
 
Tides and Currents Weather Stations Pressure Air Temp Water Temp Dewpoint Dewpoint Depression Visibility Wind Speed Wind Dir Waves Ship Positions

Kagoshima Kohaku No7

Last reported at 2017-Sep-18 08:25 UTC. Time now 2017-Sep-21 12:29 UTC.
Position N 34°04' E 135°02'.

Length 75 m; draft 4.1 m.

Type: Cargo ship. MMSI: 431008653.

Date/timePositionNaut miles runAvg speedWind from/ knotsBaromVisibWave heightAir tempDewpointWater temp
2017-Sep-18 08:25N 34°04' E 135°02'4 8.8
2017-Sep-18 08:00N 34°08' E 135°03'5 9.0
2017-Sep-18 07:30N 34°12' E 135°03'13 0.3
2017-Sep-16 05:21N 34°24' E 135°09'0 0.0
2017-Sep-16 04:58N 34°24' E 135°09'2 4.9
2017-Sep-16 04:30N 34°26' E 135°10'612.4
2017-Sep-16 04:00N 34°32' E 135°13'612.1
2017-Sep-16 03:30N 34°38' E 135°16'4 8.8
2017-Sep-16 03:00N 34°42' E 135°15'0 0.3
2017-Sep-16 02:30N 34°42' E 135°15'0 0.0
2017-Sep-16 02:00N 34°42' E 135°15'0 0.0
2017-Sep-16 01:30N 34°42' E 135°15'0 0.0
2017-Sep-16 01:00N 34°42' E 135°15'0 0.0
2017-Sep-14 23:25N 34°42' E 135°15'0 0.2
2017-Sep-14 23:00N 34°42' E 135°15'1 1.2
2017-Sep-14 22:30N 34°42' E 135°15'0 0.0
2017-Sep-14 22:00N 34°42' E 135°15'0 0.0
2017-Sep-14 21:30N 34°42' E 135°15'0 0.0
2017-Sep-14 21:00N 34°42' E 135°15'0 0.0
2017-Sep-14 20:30N 34°42' E 135°15'0 0.1
2017-Sep-14 20:00N 34°42' E 135°15'0 0.0
2017-Sep-14 19:30N 34°42' E 135°15'0 0.0
2017-Sep-14 19:00N 34°42' E 135°15'0 0.0
2017-Sep-14 18:30N 34°42' E 135°15'0 0.0
2017-Sep-14 18:00N 34°42' E 135°15'0 0.1
2017-Sep-14 17:30N 34°42' E 135°15'0 0.1
2017-Sep-14 17:00N 34°42' E 135°15'0 0.1
2017-Sep-14 16:30N 34°42' E 135°15'0 0.1
2017-Sep-14 16:00N 34°42' E 135°15'0 0.0
2017-Sep-14 15:30N 34°42' E 135°15'0 0.0
2017-Sep-14 15:00N 34°42' E 135°15'0 0.0
2017-Sep-14 14:30N 34°42' E 135°15'2 4.6
2017-Sep-14 14:00N 34°39' E 135°15'510.4
2017-Sep-14 13:30N 34°34' E 135°14'611.0
2017-Sep-14 13:00N 34°30' E 135°11'610.8
2017-Sep-14 12:30N 34°25' E 135°08'710.7
2017-Sep-14 11:52N 34°19' E 135°04'3 9.4
2017-Sep-14 11:30N 34°15' E 135°03'611.2
2017-Sep-14 11:01N 34°10' E 135°03'611.6
2017-Sep-14 10:30N 34°04' E 135°03'209 9.3
2017-Sep-13 12:00N 34°50' E 139°10'1611.2
2017-Sep-13 10:36N 34°59' E 139°25'311.5
2017-Sep-13 10:20N 35°01' E 139°28'411.6
2017-Sep-13 10:00N 35°03' E 139°32'612.3
2017-Sep-13 09:30N 35°07' E 139°39'612.4
2017-Sep-13 09:00N 35°11' E 139°44'510.9
2017-Sep-13 08:31N 35°16' E 139°46'611.6
2017-Sep-13 08:00N 35°21' E 139°42'611.5
2017-Sep-13 07:31N 35°26' E 139°45'612.3
2017-Sep-13 07:01N 35°30' E 139°51'612.2
2017-Sep-13 06:29N 35°35' E 139°56'5 9.6
2017-Sep-13 06:00N 35°40' E 139°57'1 0.0
2017-Sep-11 22:07N 35°41' E 139°58'1 5.2
2017-Sep-11 22:00N 35°40' E 139°57'3 0.2
2017-Sep-11 09:38N 35°38' E 139°58'0 0.0
2017-Sep-11 09:30N 35°38' E 139°58'0 0.0
2017-Sep-11 08:53N 35°38' E 139°58'0 0.0
2017-Sep-11 08:17N 35°38' E 139°58'0 0.0
2017-Sep-11 07:59N 35°38' E 139°58'0 0.0
2017-Sep-11 07:17N 35°38' E 139°58'0 0.0
2017-Sep-11 07:00N 35°38' E 139°58'0 0.0
2017-Sep-11 06:30N 35°38' E 139°58'0 0.0
2017-Sep-11 05:55N 35°38' E 139°58'0 0.0
2017-Sep-11 05:30N 35°38' E 139°58'5 4.3
2017-Sep-11 04:24N 35°34' E 139°55'512.2
2017-Sep-11 03:59N 35°31' E 139°50'612.2
2017-Sep-11 03:30N 35°27' E 139°45'3 6.6
2017-Sep-11 03:00N 35°27' E 139°41'0 0.0
2017-Sep-11 02:30N 35°27' E 139°41'0 0.0
2017-Sep-11 02:00N 35°27' E 139°41'0 0.0
2017-Sep-11 01:30N 35°27' E 139°41'0 0.0
2017-Sep-11 01:00N 35°27' E 139°41'0 0.0
2017-Sep-11 00:30N 35°27' E 139°41'0 0.0
2017-Sep-11 00:00N 35°27' E 139°41'0 0.0
2017-Sep-10 23:30N 35°27' E 139°41'0 0.0
2017-Sep-10 23:00N 35°27' E 139°41'1 2.2
2017-Sep-10 22:30N 35°27' E 139°42'0 0.6
2017-Sep-10 22:00N 35°27' E 139°42'0 0.0
2017-Sep-10 21:30N 35°27' E 139°42'0 0.0
2017-Sep-10 21:00N 35°27' E 139°42'0 0.0
2017-Sep-10 20:30N 35°27' E 139°42'0 0.0
2017-Sep-10 20:00N 35°27' E 139°42'0 0.0
2017-Sep-10 19:30N 35°27' E 139°42'0 0.0
2017-Sep-10 19:00N 35°27' E 139°42'0 0.0
2017-Sep-10 18:30N 35°27' E 139°42'0 0.1
2017-Sep-10 18:00N 35°27' E 139°42'0 0.0
2017-Sep-10 17:30N 35°27' E 139°42'0 0.0
2017-Sep-10 17:00N 35°27' E 139°42'0 0.1
2017-Sep-10 16:30N 35°27' E 139°42'0 0.1
2017-Sep-10 16:00N 35°27' E 139°42'0 0.1
2017-Sep-10 15:30N 35°27' E 139°42'0 0.0
2017-Sep-10 15:00N 35°27' E 139°42'0 0.1
2017-Sep-10 14:00N 35°27' E 139°42'4 8.7
2017-Sep-10 13:30N 35°22' E 139°43'510.8
2017-Sep-10 13:00N 35°17' E 139°45'510.8
2017-Sep-10 12:30N 35°12' E 139°47'611.8
2017-Sep-10 12:00N 35°07' E 139°43'612.8
2017-Sep-10 11:30N 35°03' E 139°37'713.3
2017-Sep-10 11:00N 34°58' E 139°32'22910.1
2017-Sep-09 12:23N 34°01' E 135°02'411.0
2017-Sep-09 12:00N 34°06' E 135°02'611.4
2017-Sep-09 11:28N 34°12' E 135°03'510.9
2017-Sep-09 10:59N 34°17' E 135°04'510.6
2017-Sep-09 10:29N 34°22' E 135°06'1012.1
2017-Sep-09 09:41N 34°30' E 135°12'212.3
2017-Sep-09 09:30N 34°32' E 135°13'611.6
2017-Sep-09 09:00N 34°37' E 135°16'5 9.2
2017-Sep-09 08:30N 34°42' E 135°15'0 0.0
2017-Sep-08 15:09N 34°42' E 135°15'0 0.0
2017-Sep-08 15:00N 34°42' E 135°15'0 0.0
2017-Sep-08 14:30N 34°42' E 135°15'0 0.0
2017-Sep-08 14:00N 34°42' E 135°15'0 0.0
2017-Sep-08 13:30N 34°42' E 135°15'0 0.0
2017-Sep-08 13:00N 34°42' E 135°15'0 0.0
2017-Sep-08 12:30N 34°42' E 135°15'0 0.0
2017-Sep-08 12:00N 34°42' E 135°15'0 0.0
2017-Sep-08 11:30N 34°42' E 135°15'0 0.0
2017-Sep-08 11:00N 34°42' E 135°15'0 0.0
2017-Sep-08 10:30N 34°42' E 135°15'0 0.1
2017-Sep-08 10:00N 34°42' E 135°15'1 1.1
2017-Sep-08 09:30N 34°42' E 135°15'0 0.0
2017-Sep-08 09:00N 34°42' E 135°15'0 0.0
2017-Sep-08 08:30N 34°42' E 135°15'  

Dump ship's entire track history